To NAV CANADA Home Page Login to a new session Search on AWWS site Feedback and Comments Disclaimer Vers la page française équivalente Tips FAQ What's new on the site To the Forecasts and Observations / NOTAM section To "File a Flight Plan" website Publications and other links Update of the User's profile FIC Telephone Numbers My Weather Data Folder Route Weather Data Regional Weather Data Local Weather Data To the Forecasts and Observations / NOTAM section
Request Generated 09/27/2016 at 12:03:53 UTC . Weather information available at that time is displayed.

METAR/TAF

OTTAWA/MACDONALD-CARTIER INTL/ON    

METAR CYOW 271200Z 19004KT 15SM FEW020 11/11 A2982 RMK SC1 SC TR
SLP102=
METAR CYOW 271100Z 19005KT 15SM FEW100 10/10 A2982 RMK AC1 SLP100=
METAR CYOW 271000Z 21005KT 15SM FEW100 11/10 A2982 RMK AC1 SLP100=

TAF CYOW 271138Z 2712/2812 19006KT P6SM FEW100 TEMPO 2712/2713 2SM BR
FM271400 20010KT P6SM FEW030
FM271700 20012KT P6SM BKN050
FM272000 21010G20KT P6SM -SHRA BKN050 BKN080
BECMG 2800/2802 07008KT
FM280200 07008KT P6SM BKN060
FM280600 07010KT P6SM BKN100
FM280800 08006KT P6SM FEW100 PROB30 2808/2812 1/2SM FG OVC002
RMK NXT FCST BY 271500Z=
Your time UTC time
Weather data provided by Environment Canada and NAV CANADA